Time;durP1;ratioP1;P1;durP2;ratioP2;P2;SDS_P1;SDS_P2;PMS_P1;PMS_P2;Temp;Humidity;BMP_temperature;BMP_pressure;BME280_temperature;BME280_humidity;BME280_pressure;Samples;Min_cycle;Max_cycle;Signal;HPM_P1;HPM_P2
2021/05/04 00:01:10;;;;;;;2.25;0.88;;;22.70;40.80;;;;;;5082343;28;20044;-60
2021/05/04 00:03:36;;;;;;;1.05;0.70;;;22.70;40.90;;;;;;5083715;28;20032;-60
2021/05/04 00:06:01;;;;;;;1.88;0.73;;;22.70;40.90;;;;;;5082299;28;20228;-61
2021/05/04 00:08:27;;;;;;;1.45;0.70;;;22.70;40.90;;;;;;5085051;28;20039;-60
2021/05/04 00:10:52;;;;;;;1.00;0.60;;;22.60;40.80;;;;;;5081663;28;20467;-60
2021/05/04 00:13:18;;;;;;;1.50;0.70;;;22.60;40.90;;;;;;5083415;28;20032;-60
2021/05/04 00:15:44;;;;;;;0.90;0.70;;;22.60;40.90;;;;;;5083074;28;20118;-61
2021/05/04 00:18:09;;;;;;;1.33;0.75;;;22.60;41.40;;;;;;5086771;28;20074;-60
2021/05/04 00:20:35;;;;;;;1.17;0.80;;;22.60;40.90;;;;;;5087687;28;20096;-59
2021/05/04 00:23:01;;;;;;;0.98;0.80;;;22.60;40.90;;;;;;5086176;28;20030;-59
2021/05/04 00:25:27;;;;;;;1.15;0.77;;;22.60;40.90;;;;;;5086972;28;20024;-59
2021/05/04 00:27:52;;;;;;;1.50;0.80;;;22.60;40.90;;;;;;5086233;28;20243;-59
2021/05/04 00:30:18;;;;;;;1.52;0.90;;;22.60;41.00;;;;;;5082652;28;20690;-59
2021/05/04 00:32:44;;;;;;;1.98;0.98;;;22.50;40.90;;;;;;5086239;28;20123;-63
2021/05/04 00:35:10;;;;;;;1.23;0.80;;;22.50;40.90;;;;;;5068040;28;20031;-60
2021/05/04 00:37:36;;;;;;;1.52;0.73;;;22.50;40.90;;;;;;5085590;28;20546;-61
2021/05/04 00:40:02;;;;;;;1.27;0.70;;;22.50;40.90;;;;;;5086664;28;20160;-60
2021/05/04 00:42:27;;;;;;;1.00;0.70;;;22.50;40.90;;;;;;5087257;28;20028;-60
2021/05/04 00:44:53;;;;;;;2.00;0.80;;;22.50;40.90;;;;;;5083416;28;20043;-60
2021/05/04 00:47:19;;;;;;;0.88;0.70;;;22.50;40.90;;;;;;5081882;28;20121;-60
2021/05/04 00:49:45;;;;;;;1.60;0.90;;;22.50;41.00;;;;;;5088825;28;20463;-60
2021/05/04 00:52:10;;;;;;;1.30;0.90;;;22.40;40.90;;;;;;5077142;28;20114;-60
2021/05/04 00:54:36;;;;;;;2.08;0.80;;;22.50;41.00;;;;;;5083624;28;20059;-60
2021/05/04 00:57:02;;;;;;;1.40;0.70;;;22.40;41.50;;;;;;5084434;28;20034;-60
2021/05/04 00:59:29;;;;;;;1.02;0.70;;;22.40;41.00;;;;;;5084762;28;20023;-60
2021/05/04 01:01:56;;;;;;;0.85;0.70;;;22.40;41.00;;;;;;5081047;28;20056;-61
2021/05/04 01:04:23;;;;;;;0.90;0.70;;;22.40;41.00;;;;;;5081003;28;20391;-62
2021/05/04 01:06:51;;;;;;;1.05;0.70;;;22.40;41.00;;;;;;5084033;28;20041;-60
2021/05/04 01:09:17;;;;;;;1.30;0.75;;;22.40;41.00;;;;;;5087779;28;20107;-60
2021/05/04 01:11:44;;;;;;;0.90;0.70;;;22.40;41.00;;;;;;5083859;28;20123;-62
2021/05/04 01:14:11;;;;;;;0.73;0.60;;;22.30;40.90;;;;;;5085632;28;20032;-60
2021/05/04 01:16:46;;;;;;;0.98;0.80;;;22.30;41.00;;;;;;5078133;28;20145;-59
2021/05/04 01:19:11;;;;;;;1.38;0.80;;;22.30;40.90;;;;;;5076553;28;20020;-59
2021/05/04 01:21:37;;;;;;;1.48;0.80;;;22.30;41.00;;;;;;5074349;28;20038;-60
2021/05/04 01:24:04;;;;;;;0.80;0.60;;;22.30;41.00;;;;;;5085020;28;20406;-60
2021/05/04 01:26:29;;;;;;;2.15;0.70;;;22.30;41.00;;;;;;5075855;28;20451;-61
2021/05/04 01:28:55;;;;;;;1.25;0.80;;;22.30;41.00;;;;;;5085379;28;20036;-60
2021/05/04 01:31:21;;;;;;;1.05;0.75;;;22.30;41.00;;;;;;5085652;28;20028;-60
2021/05/04 01:33:46;;;;;;;1.15;0.70;;;22.30;41.00;;;;;;5084552;28;20024;-62
2021/05/04 01:36:12;;;;;;;1.15;0.70;;;22.30;41.00;;;;;;5086352;28;20105;-60
2021/05/04 01:38:38;;;;;;;1.08;0.70;;;22.30;41.00;;;;;;5086212;28;20027;-59
2021/05/04 01:41:04;;;;;;;2.35;0.75;;;22.20;41.00;;;;;;5086733;28;20115;-59
2021/05/04 01:43:29;;;;;;;1.17;0.77;;;22.20;41.00;;;;;;5065247;28;20447;-60
2021/05/04 01:45:55;;;;;;;1.38;0.70;;;22.20;41.00;;;;;;5067545;28;20036;-59
2021/05/04 01:48:20;;;;;;;1.20;0.80;;;22.20;41.00;;;;;;5084082;28;20048;-59
2021/05/04 01:50:46;;;;;;;0.75;0.60;;;22.20;41.00;;;;;;5086181;28;20032;-61
2021/05/04 01:53:11;;;;;;;0.82;0.70;;;22.20;41.00;;;;;;5085148;28;20040;-59
2021/05/04 01:55:37;;;;;;;0.73;0.60;;;22.20;41.60;;;;;;5083529;28;20032;-59
2021/05/04 01:58:02;;;;;;;1.17;0.70;;;22.20;41.00;;;;;;5084643;28;20063;-59
2021/05/04 02:00:28;;;;;;;1.17;0.65;;;22.20;41.10;;;;;;5085178;28;20036;-60
2021/05/04 02:02:54;;;;;;;1.20;0.90;;;22.10;41.00;;;;;;5085388;28;20024;-62
2021/05/04 02:05:20;;;;;;;2.90;0.93;;;22.20;41.00;;;;;;5082127;28;20024;-59
2021/05/04 02:07:45;;;;;;;0.88;0.70;;;22.10;41.00;;;;;;5085567;28;20493;-59
2021/05/04 02:10:11;;;;;;;0.70;0.65;;;22.10;41.00;;;;;;5085778;28;20032;-61
2021/05/04 02:12:41;;;;;;;0.80;0.68;;;22.10;41.00;;;;;;5069225;28;20447;-61
2021/05/04 02:15:08;;;;;;;1.30;0.70;;;22.10;41.00;;;;;;5064491;28;20028;-61
2021/05/04 02:17:34;;;;;;;0.90;0.70;;;22.10;41.00;;;;;;5085521;28;20397;-62
2021/05/04 02:19:59;;;;;;;0.82;0.75;;;22.10;41.00;;;;;;5084809;28;20028;-61
2021/05/04 02:22:25;;;;;;;2.35;0.70;;;22.10;41.00;;;;;;5064873;28;20024;-60
2021/05/04 02:24:51;;;;;;;0.82;0.65;;;22.10;41.00;;;;;;5071179;28;20115;-61
2021/05/04 02:27:16;;;;;;;1.02;0.70;;;22.10;41.00;;;;;;5081306;28;20191;-60
2021/05/04 02:29:42;;;;;;;0.77;0.70;;;22.10;41.00;;;;;;5085226;28;20397;-60
2021/05/04 02:32:07;;;;;;;0.63;0.60;;;22.10;41.50;;;;;;5084681;28;20047;-60
2021/05/04 02:34:33;;;;;;;0.60;0.60;;;22.10;41.50;;;;;;5066475;28;20128;-60
2021/05/04 02:36:59;;;;;;;0.85;0.60;;;22.00;40.90;;;;;;5084416;28;20118;-60
2021/05/04 02:39:24;;;;;;;1.10;0.73;;;22.00;40.90;;;;;;5084582;28;20024;-60
2021/05/04 02:41:50;;;;;;;0.88;0.70;;;22.00;41.00;;;;;;5066133;28;20434;-61
2021/05/04 02:44:16;;;;;;;1.02;0.70;;;22.00;40.90;;;;;;5084288;28;20028;-60
2021/05/04 02:46:41;;;;;;;0.50;0.50;;;22.00;41.00;;;;;;5082272;28;20039;-61
2021/05/04 02:49:07;;;;;;;0.90;0.70;;;22.00;41.00;;;;;;5085922;28;20357;-60
2021/05/04 02:51:32;;;;;;;1.05;0.73;;;22.00;40.90;;;;;;5086136;28;20039;-60
2021/05/04 02:53:58;;;;;;;1.35;0.80;;;22.00;40.90;;;;;;5084540;28;20031;-60
2021/05/04 02:56:24;;;;;;;1.33;0.90;;;22.00;41.00;;;;;;5077899;28;20603;-61
2021/05/04 02:58:50;;;;;;;1.23;0.80;;;22.00;41.00;;;;;;5083350;28;20050;-60
2021/05/04 03:01:16;;;;;;;0.65;0.60;;;22.00;41.00;;;;;;5063406;28;20040;-59
2021/05/04 03:03:41;;;;;;;0.98;0.70;;;21.90;40.90;;;;;;5079000;28;20031;-60
2021/05/04 03:06:07;;;;;;;0.60;0.60;;;21.90;40.90;;;;;;5083792;28;20024;-60
2021/05/04 03:08:33;;;;;;;0.63;0.60;;;21.90;40.90;;;;;;5082015;28;20623;-62
2021/05/04 03:10:59;;;;;;;0.75;0.65;;;21.90;40.90;;;;;;5083079;28;20090;-61
2021/05/04 03:13:27;;;;;;;0.73;0.70;;;21.90;40.90;;;;;;5082485;28;20442;-60
2021/05/04 03:15:52;;;;;;;0.80;0.70;;;21.90;40.90;;;;;;5062578;28;20323;-61
2021/05/04 03:18:18;;;;;;;0.55;0.55;;;21.90;40.90;;;;;;5077091;28;20043;-59
2021/05/04 03:20:45;;;;;;;0.70;0.60;;;21.90;41.00;;;;;;5083168;28;20024;-59
2021/05/04 03:23:11;;;;;;;0.60;0.60;;;21.90;41.00;;;;;;5082451;28;20114;-60
2021/05/04 03:25:37;;;;;;;0.75;0.70;;;21.90;41.00;;;;;;5085260;28;20028;-60
2021/05/04 03:28:03;;;;;;;1.23;0.73;;;21.90;40.90;;;;;;5081813;28;20035;-61
2021/05/04 03:30:29;;;;;;;0.95;0.77;;;21.90;41.40;;;;;;5066205;28;20067;-59
2021/05/04 03:32:55;;;;;;;0.73;0.63;;;21.80;40.90;;;;;;5072616;28;20386;-60
2021/05/04 03:35:20;;;;;;;1.98;0.70;;;21.80;40.90;;;;;;5064332;28;20028;-60
2021/05/04 03:37:47;;;;;;;0.60;0.60;;;21.80;40.90;;;;;;5084859;28;20036;-59
2021/05/04 03:40:13;;;;;;;0.90;0.60;;;21.80;40.90;;;;;;5084237;28;20028;-61
2021/05/04 03:42:38;;;;;;;0.90;0.65;;;21.80;40.90;;;;;;5083283;28;20081;-61
2021/05/04 03:45:05;;;;;;;0.60;0.60;;;21.80;40.90;;;;;;5082318;28;20438;-60
2021/05/04 03:47:31;;;;;;;0.77;0.68;;;21.80;40.90;;;;;;5081061;28;20101;-60
2021/05/04 03:49:56;;;;;;;1.58;0.68;;;21.80;40.90;;;;;;5079537;28;20451;-59
2021/05/04 03:52:22;;;;;;;0.60;0.60;;;21.70;40.90;;;;;;5090052;28;20031;-59
2021/05/04 03:54:48;;;;;;;0.63;0.60;;;21.70;40.90;;;;;;5067425;28;20024;-59
2021/05/04 03:57:13;;;;;;;0.93;0.63;;;21.70;40.90;;;;;;5084998;28;20626;-61
2021/05/04 03:59:40;;;;;;;0.68;0.68;;;21.70;40.90;;;;;;5086335;28;20507;-61
2021/05/04 04:02:05;;;;;;;0.90;0.60;;;21.70;40.90;;;;;;5056749;28;20043;-60
2021/05/04 04:04:31;;;;;;;0.95;0.73;;;21.70;40.90;;;;;;5081654;28;20478;-61
2021/05/04 04:06:57;;;;;;;0.68;0.60;;;21.70;40.90;;;;;;5068577;28;20027;-60
2021/05/04 04:09:22;;;;;;;0.65;0.63;;;21.70;40.90;;;;;;5086609;28;20099;-61
2021/05/04 04:11:48;;;;;;;0.93;0.73;;;21.70;41.00;;;;;;5089373;28;20771;-59
2021/05/04 04:14:14;;;;;;;0.63;0.60;;;21.70;40.90;;;;;;5065341;28;20027;-60
2021/05/04 04:16:39;;;;;;;0.80;0.70;;;21.70;41.00;;;;;;5063392;28;20482;-61
2021/05/04 04:19:05;;;;;;;1.15;0.70;;;21.70;40.90;;;;;;5078314;28;20029;-59
2021/05/04 04:21:30;;;;;;;0.82;0.60;;;21.60;40.90;;;;;;5075192;28;20038;-61
2021/05/04 04:23:56;;;;;;;0.60;0.60;;;21.70;40.90;;;;;;5067022;28;20118;-59
2021/05/04 04:26:21;;;;;;;0.80;0.70;;;21.60;40.90;;;;;;5081544;28;20190;-59
2021/05/04 04:28:47;;;;;;;0.90;0.70;;;21.60;40.90;;;;;;5086987;28;20446;-59
2021/05/04 04:31:13;;;;;;;0.60;0.60;;;21.60;40.90;;;;;;5083205;28;20040;-59
2021/05/04 04:33:38;;;;;;;0.80;0.70;;;21.60;40.90;;;;;;5082075;28;20032;-59
2021/05/04 04:36:04;;;;;;;0.60;0.60;;;21.60;40.90;;;;;;5085279;28;20038;-59
2021/05/04 04:38:30;;;;;;;0.82;0.70;;;21.60;40.90;;;;;;5085538;28;20035;-60
2021/05/04 04:40:56;;;;;;;0.60;0.60;;;21.60;40.90;;;;;;5081173;28;20032;-59
2021/05/04 04:43:21;;;;;;;0.75;0.60;;;21.60;41.50;;;;;;5071233;28;20404;-60
2021/05/04 04:45:47;;;;;;;0.63;0.60;;;21.60;40.90;;;;;;5084042;28;20039;-59
2021/05/04 04:48:13;;;;;;;1.05;0.63;;;21.60;40.90;;;;;;5082324;28;20352;-60
2021/05/04 04:50:38;;;;;;;0.80;0.60;;;21.60;41.00;;;;;;5082440;28;20082;-61
2021/05/04 04:53:04;;;;;;;0.52;0.52;;;21.50;40.90;;;;;;5065507;28;20466;-61
2021/05/04 04:55:30;;;;;;;0.75;0.70;;;21.60;41.00;;;;;;5080292;28;20210;-60
2021/05/04 04:57:55;;;;;;;0.88;0.60;;;21.50;40.90;;;;;;5082751;28;20028;-60
2021/05/04 05:00:21;;;;;;;1.05;0.60;;;21.50;40.90;;;;;;5066096;28;20028;-60
2021/05/04 05:02:47;;;;;;;0.80;0.65;;;21.50;40.90;;;;;;5070406;28;20490;-62
2021/05/04 05:05:13;;;;;;;1.15;0.70;;;21.50;41.00;;;;;;5081375;28;20104;-59
2021/05/04 05:07:39;;;;;;;0.60;0.60;;;21.50;41.00;;;;;;5079191;28;20097;-61
2021/05/04 05:10:05;;;;;;;0.90;0.70;;;21.50;41.00;;;;;;5081149;28;20059;-60
2021/05/04 05:12:30;;;;;;;0.70;0.65;;;21.50;41.00;;;;;;5085253;28;20127;-59
2021/05/04 05:15:00;;;;;;;0.95;0.70;;;21.50;41.10;;;;;;5078724;28;20098;-61
2021/05/04 05:17:25;;;;;;;0.63;0.63;;;21.50;41.10;;;;;;5081780;28;20058;-60
2021/05/04 05:19:51;;;;;;;1.13;0.70;;;21.50;41.00;;;;;;5079822;28;20031;-61
2021/05/04 05:22:16;;;;;;;0.93;0.70;;;21.50;41.10;;;;;;5084502;28;20511;-59
2021/05/04 05:24:42;;;;;;;1.02;0.63;;;21.50;41.10;;;;;;5066425;28;20319;-61
2021/05/04 05:27:08;;;;;;;0.85;0.65;;;21.40;41.00;;;;;;5085835;28;20135;-60
2021/05/04 05:29:34;;;;;;;0.93;0.70;;;21.40;41.00;;;;;;5089318;28;20080;-61
2021/05/04 05:32:01;;;;;;;0.73;0.60;;;21.40;41.00;;;;;;5082626;28;20481;-60
2021/05/04 05:34:26;;;;;;;1.95;0.85;;;21.40;41.10;;;;;;5084233;28;20013;-62
2021/05/04 05:36:52;;;;;;;0.98;0.65;;;21.40;41.00;;;;;;5085956;28;20042;-60
2021/05/04 05:39:19;;;;;;;0.63;0.60;;;21.40;41.10;;;;;;5084299;28;20059;-62
2021/05/04 05:41:44;;;;;;;0.73;0.70;;;21.40;41.10;;;;;;5086145;28;20038;-62
2021/05/04 05:44:10;;;;;;;0.98;0.70;;;21.40;41.10;;;;;;5080419;28;20032;-60
2021/05/04 05:46:36;;;;;;;1.40;0.80;;;21.40;41.10;;;;;;5084361;28;20048;-61
2021/05/04 05:49:01;;;;;;;1.55;0.80;;;21.40;41.10;;;;;;5082912;28;20495;-60
2021/05/04 05:51:27;;;;;;;0.95;0.80;;;21.40;41.10;;;;;;5083477;28;20036;-61
2021/05/04 05:53:56;;;;;;;0.93;0.70;;;21.40;41.10;;;;;;5083316;28;20102;-60
2021/05/04 05:56:22;;;;;;;1.50;0.90;;;21.40;41.10;;;;;;5084252;28;20038;-60
2021/05/04 05:58:48;;;;;;;1.33;0.70;;;21.40;41.10;;;;;;5081756;28;20024;-60
2021/05/04 06:01:13;;;;;;;1.30;0.80;;;21.40;41.10;;;;;;5064942;28;20044;-59
2021/05/04 06:03:39;;;;;;;1.92;0.77;;;21.30;41.10;;;;;;5081757;28;20061;-60
2021/05/04 06:06:05;;;;;;;1.02;0.70;;;21.30;41.10;;;;;;5084399;28;20201;-60
2021/05/04 06:08:30;;;;;;;1.85;0.80;;;21.40;41.10;;;;;;5080537;28;20036;-60
2021/05/04 06:10:56;;;;;;;1.20;0.80;;;21.40;41.60;;;;;;5078990;28;20067;-60
2021/05/04 06:13:22;;;;;;;1.20;0.95;;;21.50;41.80;;;;;;5083709;28;20405;-60
2021/05/04 06:15:47;;;;;;;1.98;0.98;;;21.50;41.30;;;;;;5083509;28;20024;-60
2021/05/04 06:18:14;;;;;;;1.60;0.90;;;21.60;41.20;;;;;;5080590;28;20443;-59
2021/05/04 06:20:39;;;;;;;1.90;0.90;;;21.70;41.10;;;;;;5083982;28;20023;-61
2021/05/04 06:23:06;;;;;;;1.30;0.80;;;21.90;40.80;;;;;;5083173;28;20032;-61
2021/05/04 06:25:33;;;;;;;2.03;1.10;;;21.90;40.60;;;;;;5082916;28;20035;-59
2021/05/04 06:28:03;;;;;;;1.83;1.00;;;21.90;40.50;;;;;;5081616;28;20039;-61
2021/05/04 06:30:33;;;;;;;1.95;1.00;;;22.00;40.40;;;;;;5066518;28;20283;-60
2021/05/04 06:33:13;;;;;;;2.13;0.93;;;22.10;40.40;;;;;;5086145;28;20021;-59
2021/05/04 06:35:43;;;;;;;1.75;0.90;;;22.20;40.40;;;;;;5081762;28;20036;-61
2021/05/04 06:38:13;;;;;;;2.00;0.95;;;22.30;40.10;;;;;;5081469;28;20122;-61
2021/05/04 06:40:41;;;;;;;1.33;0.90;;;22.40;40.10;;;;;;5076489;28;20134;-62
2021/05/04 06:43:06;;;;;;;1.88;0.90;;;22.50;39.90;;;;;;5076516;28;20080;-60
2021/05/04 06:45:32;;;;;;;3.28;1.10;;;22.60;39.60;;;;;;5072992;28;20516;-60
2021/05/04 06:47:58;;;;;;;1.73;0.90;;;22.60;39.60;;;;;;5082549;28;20027;-61
2021/05/04 06:50:24;;;;;;;1.55;0.98;;;22.70;39.50;;;;;;5085225;28;20478;-61
2021/05/04 06:52:49;;;;;;;1.60;1.00;;;22.80;39.40;;;;;;5086367;28;20709;-62
2021/05/04 06:55:15;;;;;;;2.17;0.93;;;22.90;39.30;;;;;;5083264;28;20032;-62
2021/05/04 06:57:41;;;;;;;2.85;1.00;;;22.90;39.50;;;;;;5083326;28;20396;-60
2021/05/04 07:00:08;;;;;;;2.15;0.98;;;23.00;39.00;;;;;;5082432;28;20331;-60
2021/05/04 07:02:35;;;;;;;2.75;1.10;;;23.10;39.00;;;;;;5075126;28;20056;-61
2021/05/04 07:05:01;;;;;;;2.45;0.95;;;23.10;38.80;;;;;;5083053;28;20183;-60
2021/05/04 07:07:27;;;;;;;2.47;1.17;;;23.20;38.80;;;;;;5064485;28;20032;-63
2021/05/04 07:09:53;;;;;;;1.95;1.00;;;23.30;38.70;;;;;;5063561;28;20047;-61
2021/05/04 07:12:18;;;;;;;1.92;1.10;;;23.40;38.60;;;;;;5084926;28;20389;-61
2021/05/04 07:14:44;;;;;;;1.70;1.10;;;23.40;38.40;;;;;;5083856;28;20509;-61
2021/05/04 07:17:09;;;;;;;1.85;1.00;;;23.50;38.30;;;;;;5063198;28;20115;-60
2021/05/04 07:19:38;;;;;;;2.05;0.98;;;23.60;38.20;;;;;;5077087;28;20443;-61
2021/05/04 07:22:05;;;;;;;1.40;0.80;;;23.60;38.60;;;;;;5085825;28;20032;-59
2021/05/04 07:24:31;;;;;;;1.48;1.00;;;23.60;38.10;;;;;;5084198;28;20016;-61
2021/05/04 07:26:56;;;;;;;2.08;0.85;;;23.60;38.20;;;;;;5083445;28;20047;-60
2021/05/04 07:29:22;;;;;;;2.10;0.90;;;23.60;38.20;;;;;;5082345;28;20473;-59
2021/05/04 07:31:47;;;;;;;2.15;1.00;;;23.60;38.10;;;;;;5084546;28;20040;-60
2021/05/04 07:34:13;;;;;;;2.00;0.90;;;23.60;38.40;;;;;;5084165;28;20104;-62
2021/05/04 07:36:39;;;;;;;1.67;0.98;;;23.60;38.40;;;;;;5076522;28;20534;-60
2021/05/04 07:39:05;;;;;;;1.77;0.90;;;23.60;38.20;;;;;;5083167;28;20081;-59
2021/05/04 07:41:31;;;;;;;1.48;0.95;;;23.60;38.30;;;;;;5086215;28;20028;-59
2021/05/04 07:43:57;;;;;;;1.63;1.00;;;23.60;38.40;;;;;;5082982;28;20016;-59
2021/05/04 07:46:23;;;;;;;1.48;0.90;;;23.60;38.40;;;;;;5065740;28;20040;-60
2021/05/04 07:48:48;;;;;;;1.88;1.00;;;23.60;38.40;;;;;;5077830;28;20032;-60
2021/05/04 07:51:14;;;;;;;2.55;1.13;;;23.60;38.50;;;;;;5084832;28;20568;-59
2021/05/04 07:53:39;;;;;;;2.15;1.00;;;23.60;38.50;;;;;;5084055;28;20032;-61
2021/05/04 07:56:05;;;;;;;1.23;0.80;;;23.60;38.50;;;;;;5078006;28;20364;-59
2021/05/04 07:58:32;;;;;;;1.52;0.90;;;23.60;38.50;;;;;;5083328;28;20023;-59
2021/05/04 08:00:58;;;;;;;1.23;0.80;;;23.60;38.40;;;;;;5081312;28;20032;-61
2021/05/04 08:03:24;;;;;;;1.33;0.85;;;23.70;38.50;;;;;;5074407;28;20047;-60
2021/05/04 08:05:50;;;;;;;1.85;1.00;;;23.70;39.00;;;;;;5085395;28;20032;-60
2021/05/04 08:08:16;;;;;;;1.98;1.00;;;23.70;37.60;;;;;;5084876;28;20028;-60
2021/05/04 08:10:42;;;;;;;2.67;1.15;;;23.60;36.90;;;;;;5083390;28;20100;-59
2021/05/04 08:13:08;;;;;;;2.03;1.20;;;23.60;35.80;;;;;;5076893;28;20101;-61
2021/05/04 08:15:35;;;;;;;2.00;1.30;;;23.50;35.70;;;;;;5082548;28;20024;-61
2021/05/04 08:18:04;;;;;;;3.42;1.60;;;23.40;35.60;;;;;;5082083;28;20024;-59
2021/05/04 08:20:32;;;;;;;2.17;1.40;;;23.40;35.20;;;;;;5086575;28;20403;-61
2021/05/04 08:22:59;;;;;;;2.65;1.25;;;23.40;34.80;;;;;;5084413;28;20134;-59
2021/05/04 08:25:25;;;;;;;2.03;1.13;;;23.40;35.00;;;;;;5084042;28;20100;-61
2021/05/04 08:27:51;;;;;;;1.95;1.10;;;23.40;35.00;;;;;;5081750;28;20055;-60
2021/05/04 08:30:17;;;;;;;2.30;1.48;;;23.30;34.30;;;;;;5064696;28;20394;-59
2021/05/04 08:32:43;;;;;;;1.98;1.23;;;23.30;35.10;;;;;;5083785;28;20028;-59
2021/05/04 08:35:09;;;;;;;1.88;1.30;;;23.30;35.70;;;;;;5083177;28;20107;-62
2021/05/04 08:37:34;;;;;;;1.98;1.30;;;23.30;33.90;;;;;;5087912;28;20039;-61
2021/05/04 08:40:00;;;;;;;2.25;1.20;;;23.20;34.60;;;;;;5071209;28;20031;-59
2021/05/04 08:42:25;;;;;;;2.33;1.40;;;23.20;33.90;;;;;;5070602;28;20028;-60
2021/05/04 08:44:52;;;;;;;2.20;1.30;;;23.20;34.20;;;;;;5084370;28;20143;-61
2021/05/04 08:47:22;;;;;;;2.28;1.38;;;23.20;33.80;;;;;;5089355;28;20024;-62
2021/05/04 08:49:48;;;;;;;2.72;1.30;;;23.10;33.50;;;;;;5067434;28;20036;-61
2021/05/04 08:52:16;;;;;;;1.83;1.20;;;23.10;33.00;;;;;;5091776;28;20455;-60
2021/05/04 08:54:42;;;;;;;2.67;1.30;;;23.10;32.90;;;;;;5097556;28;20368;-60
2021/05/04 08:57:08;;;;;;;2.72;1.40;;;23.10;32.90;;;;;;5086926;28;20024;-59
2021/05/04 08:59:33;;;;;;;2.85;1.40;;;23.10;32.30;;;;;;5072539;28;20024;-59
2021/05/04 09:01:59;;;;;;;2.15;1.13;;;23.10;32.20;;;;;;5080863;28;20102;-63
2021/05/04 09:07:29;;;;;;;1.15;0.98;;;23.10;33.60;;;;;;5087565;28;20043;-61
2021/05/04 09:09:58;;;;;;;1.65;1.10;;;23.10;35.40;;;;;;5079436;28;20032;-61
2021/05/04 09:12:33;;;;;;;1.85;1.05;;;23.10;36.00;;;;;;5082419;28;20108;-60
2021/05/04 09:15:05;;;;;;;1.73;1.00;;;23.20;36.30;;;;;;5084502;28;20046;-61
2021/05/04 09:17:36;;;;;;;1.75;1.00;;;23.20;36.40;;;;;;5087983;28;20024;-61
2021/05/04 09:22:37;;;;;;;1.58;1.10;;;23.20;36.50;;;;;;5085875;28;20035;-61
2021/05/04 09:25:05;;;;;;;1.88;1.05;;;23.20;36.50;;;;;;5086536;28;20020;-60
2021/05/04 09:27:31;;;;;;;1.42;0.95;;;23.30;36.60;;;;;;5088466;28;20035;-61
2021/05/04 09:29:59;;;;;;;1.48;0.90;;;23.30;36.50;;;;;;5087605;28;20025;-63
2021/05/04 09:32:33;;;;;;;1.20;0.90;;;23.30;36.60;;;;;;5085774;28;20036;-60
2021/05/04 09:35:02;;;;;;;1.05;0.88;;;23.30;36.60;;;;;;5086081;28;20035;-62
2021/05/04 09:37:33;;;;;;;1.65;1.00;;;23.30;36.70;;;;;;5087225;28;20052;-62
2021/05/04 09:40:26;;;;;;;1.90;1.08;;;23.30;36.70;;;;;;5092081;28;20569;-60
2021/05/04 09:43:23;;;;;;;1.77;1.10;;;23.30;36.80;;;;;;5086895;28;20024;-61
2021/05/04 09:45:51;;;;;;;2.92;1.15;;;23.40;36.80;;;;;;5085897;28;20055;-61
2021/05/04 09:48:17;;;;;;;1.20;0.90;;;23.30;36.80;;;;;;5085033;28;20594;-60
2021/05/04 09:50:56;;;;;;;2.03;1.00;;;23.30;36.80;;;;;;5078627;28;20354;-60
2021/05/04 09:56:08;;;;;;;2.50;1.20;;;23.30;36.80;;;;;;5086789;28;20293;-60
2021/05/04 09:58:49;;;;;;;1.95;1.00;;;23.40;36.90;;;;;;5083635;28;20531;-61
2021/05/04 10:01:18;;;;;;;1.70;1.00;;;23.30;36.90;;;;;;5083011;28;20039;-60
2021/05/04 10:03:45;;;;;;;2.37;1.03;;;23.40;37.00;;;;;;5085853;28;20386;-60
2021/05/04 10:06:13;;;;;;;2.25;1.00;;;23.30;36.90;;;;;;5087186;28;20274;-61
2021/05/04 10:08:40;;;;;;;1.58;1.10;;;23.30;37.00;;;;;;5087134;28;20050;-61
2021/05/04 10:11:20;;;;;;;1.58;1.02;;;23.40;37.10;;;;;;5088734;28;20055;-61
2021/05/04 10:13:57;;;;;;;1.27;0.90;;;23.30;37.00;;;;;;5086415;28;20062;-60
2021/05/04 10:16:28;;;;;;;1.30;0.90;;;23.30;37.00;;;;;;5068183;28;20024;-61
2021/05/04 10:19:01;;;;;;;1.60;1.10;;;23.30;37.00;;;;;;5086123;28;20118;-60
2021/05/04 10:21:28;;;;;;;1.65;0.90;;;23.30;37.10;;;;;;5069144;28;20020;-62
2021/05/04 10:23:54;;;;;;;1.08;0.90;;;23.30;37.00;;;;;;5064340;28;20456;-61
2021/05/04 10:26:24;;;;;;;1.20;0.90;;;23.30;37.00;;;;;;5086213;28;20081;-63
2021/05/04 10:28:55;;;;;;;1.25;0.90;;;23.30;37.00;;;;;;5082876;28;20024;-63
2021/05/04 10:31:39;;;;;;;1.58;0.98;;;23.30;36.90;;;;;;5086694;28;20028;-60
2021/05/04 10:34:39;;;;;;;1.80;0.88;;;23.30;37.00;;;;;;5070230;28;20040;-60
2021/05/04 10:37:13;;;;;;;1.45;1.08;;;23.20;37.00;;;;;;5049827;28;20035;-59
2021/05/04 10:39:39;;;;;;;1.67;1.02;;;23.20;35.40;;;;;;5096362;28;20028;-60
2021/05/04 10:42:07;;;;;;;1.63;0.90;;;23.20;35.50;;;;;;5074004;28;20034;-59
2021/05/04 10:44:58;;;;;;;1.40;1.00;;;23.20;35.10;;;;;;5082384;28;20032;-59
2021/05/04 10:47:38;;;;;;;0.95;0.85;;;23.20;34.80;;;;;;5082766;28;20180;-60
2021/05/04 10:50:08;;;;;;;1.45;0.90;;;23.20;34.30;;;;;;5083179;28;20039;-60
2021/05/04 10:52:54;;;;;;;2.75;0.95;;;23.20;34.20;;;;;;5076058;28;20387;-57
2021/05/04 10:55:39;;;;;;;2.88;1.17;;;23.20;34.00;;;;;;5085938;28;20012;-61
2021/05/04 10:58:08;;;;;;;1.85;0.90;;;23.20;34.40;;;;;;5086296;28;20024;-60
2021/05/04 11:00:52;;;;;;;1.80;1.00;;;23.20;33.80;;;;;;5085554;28;20024;-59
2021/05/04 11:03:30;;;;;;;1.83;1.00;;;23.20;34.00;;;;;;5067039;28;20103;-60
2021/05/04 11:05:56;;;;;;;1.55;0.90;;;23.20;34.20;;;;;;5086219;28;20035;-59
2021/05/04 11:08:22;;;;;;;2.53;1.17;;;23.20;34.50;;;;;;5085718;28;20020;-62
2021/05/04 11:11:29;;;;;;;1.25;0.90;;;23.20;35.40;;;;;;5084068;28;20031;-60
2021/05/04 11:13:59;;;;;;;1.60;1.00;;;23.20;35.40;;;;;;5080244;28;20407;-61
2021/05/04 11:16:29;;;;;;;1.95;1.00;;;23.20;35.40;;;;;;5083043;28;20024;-62
2021/05/04 11:19:08;;;;;;;1.92;1.00;;;23.30;35.30;;;;;;5063725;28;20118;-59
2021/05/04 11:21:51;;;;;;;1.92;1.00;;;23.30;35.40;;;;;;5087307;28;20024;-61
2021/05/04 11:24:22;;;;;;;2.67;1.20;;;23.30;34.90;;;;;;5081117;28;20524;-61
2021/05/04 11:26:55;;;;;;;1.45;1.00;;;23.30;34.60;;;;;;5065555;28;20039;-63
2021/05/04 11:29:39;;;;;;;1.20;0.90;;;23.30;35.10;;;;;;5082174;28;20095;-61
2021/05/04 11:32:12;;;;;;;1.20;1.00;;;23.30;35.30;;;;;;5082544;28;20039;-61
2021/05/04 11:34:39;;;;;;;1.58;1.00;;;23.30;34.60;;;;;;5076720;28;20040;-63
2021/05/04 11:37:18;;;;;;;1.00;0.82;;;23.30;33.60;;;;;;5074800;28;20750;-61
2021/05/04 11:40:05;;;;;;;2.78;1.10;;;23.30;33.40;;;;;;5082068;28;20080;-59
2021/05/04 11:42:45;;;;;;;1.50;1.00;;;23.30;32.80;;;;;;5080523;28;20039;-59
2021/05/04 11:45:31;;;;;;;1.10;0.90;;;23.30;33.00;;;;;;5075632;28;20032;-57
2021/05/04 11:48:07;;;;;;;1.83;1.08;;;23.30;33.20;;;;;;5081566;28;20488;-60
2021/05/04 11:50:36;;;;;;;1.25;0.90;;;23.30;34.20;;;;;;5080883;28;20040;-63
2021/05/04 11:53:05;;;;;;;1.55;1.00;;;23.30;33.60;;;;;;5084899;28;20046;-61
2021/05/04 11:55:32;;;;;;;1.30;0.90;;;23.30;33.60;;;;;;5084849;28;20489;-58
2021/05/04 11:58:07;;;;;;;1.33;1.00;;;23.20;32.60;;;;;;5080239;28;20052;-63
2021/05/04 12:00:35;;;;;;;1.30;0.85;;;23.30;32.40;;;;;;5079702;28;20119;-58
2021/05/04 12:03:19;;;;;;;1.10;0.82;;;23.30;32.70;;;;;;5064384;28;20505;-58
2021/05/04 12:05:46;;;;;;;2.05;1.10;;;23.30;32.90;;;;;;5073240;28;20044;-59
2021/05/04 12:08:13;;;;;;;1.65;1.08;;;23.20;32.90;;;;;;5080941;28;20036;-58
2021/05/04 12:10:40;;;;;;;1.42;1.10;;;23.20;32.70;;;;;;5081917;28;20031;-57
2021/05/04 12:13:15;;;;;;;1.85;1.08;;;23.20;33.70;;;;;;5086021;28;20044;-61
2021/05/04 12:15:42;;;;;;;1.40;0.90;;;23.20;33.00;;;;;;5065980;28;20059;-59
2021/05/04 12:18:15;;;;;;;2.45;1.20;;;23.20;32.70;;;;;;5072469;28;20024;-59
2021/05/04 12:20:48;;;;;;;1.90;1.10;;;23.20;32.70;;;;;;5085215;28;20121;-59
2021/05/04 12:23:25;;;;;;;2.85;1.05;;;23.20;32.70;;;;;;5084497;28;20098;-57
2021/05/04 12:25:55;;;;;;;1.30;0.90;;;23.10;33.30;;;;;;5082836;28;20016;-55
2021/05/04 12:28:24;;;;;;;1.95;1.00;;;23.20;33.80;;;;;;5061728;28;20077;-57
2021/05/04 12:30:54;;;;;;;2.13;1.10;;;23.20;33.60;;;;;;5091608;28;20028;-62
2021/05/04 12:33:21;;;;;;;1.70;1.02;;;23.20;33.40;;;;;;5091515;28;20379;-61
2021/05/04 12:35:58;;;;;;;3.50;0.90;;;23.20;33.30;;;;;;5094235;28;20521;-60
2021/05/04 12:38:26;;;;;;;1.60;1.00;;;23.20;33.80;;;;;;5088314;28;20020;-61
2021/05/04 12:40:58;;;;;;;2.88;1.27;;;23.20;33.90;;;;;;5088743;28;20324;-57
2021/05/04 12:43:27;;;;;;;2.03;1.00;;;23.20;34.30;;;;;;5089474;28;20052;-62
2021/05/04 12:46:06;;;;;;;1.15;0.90;;;23.20;34.70;;;;;;5078419;28;20086;-60
2021/05/04 12:48:34;;;;;;;1.42;0.90;;;23.20;34.80;;;;;;5088773;28;20028;-61
2021/05/04 12:51:09;;;;;;;1.52;1.05;;;23.20;34.90;;;;;;5091733;28;20032;-59
2021/05/04 12:53:38;;;;;;;1.45;0.93;;;23.20;34.90;;;;;;5092909;28;20034;-60
2021/05/04 12:56:19;;;;;;;1.80;1.00;;;23.30;34.90;;;;;;5091475;28;20079;-56
2021/05/04 12:58:59;;;;;;;1.13;0.80;;;23.30;35.00;;;;;;5095151;28;20063;-59
2021/05/04 13:01:34;;;;;;;1.63;1.00;;;23.30;35.10;;;;;;5081416;28;20095;-60